Time;durP1;ratioP1;P1;durP2;ratioP2;P2;SDS_P1;SDS_P2;PMS_P1;PMS_P2;Temp;Humidity;BMP_temperature;BMP_pressure;BME280_temperature;BME280_humidity;BME280_pressure;Samples;Min_cycle;Max_cycle;Signal;HPM_P1;HPM_P2
2020/03/08 00:00:23;;;;;;;14.65;10.25;;;;;;;-0.28;82.4668;95787.2;;;;
2020/03/08 00:02:01;;;;;;;14.65;10.25;;;;;;;-0.28;82.4668;95787.2;;;;
2020/03/08 00:03:03;;;;;;;14.65;10.25;;;;;;;-0.28;82.4668;95787.2;;;;
2020/03/08 00:04:03;;;;;;;14.65;10.25;;;;;;;-0.28;82.4668;95787.2;;;;
2020/03/08 00:05:04;;;;;;;14.65;10.25;;;;;;;-0.28;82.4668;95787.2;;;;
2020/03/08 00:06:04;;;;;;;16.45;10.55;;;;;;;-0.5;82.6543;95778.86;;;;
2020/03/08 00:07:05;;;;;;;16.45;10.55;;;;;;;-0.5;82.6543;95778.86;;;;
2020/03/08 00:08:06;;;;;;;16.45;10.55;;;;;;;-0.5;82.6543;95778.86;;;;
2020/03/08 00:09:06;;;;;;;16.45;10.55;;;;;;;-0.5;82.6543;95778.86;;;;
2020/03/08 00:10:07;;;;;;;16.45;10.55;;;;;;;-0.5;82.6543;95778.86;;;;
2020/03/08 00:11:08;;;;;;;16.45;10.55;;;;;;;-0.5;82.6543;95778.86;;;;
2020/03/08 00:12:08;;;;;;;16.45;10.55;;;;;;;-0.5;82.6543;95778.86;;;;
2020/03/08 00:13:09;;;;;;;16.45;10.55;;;;;;;-0.5;82.6543;95778.86;;;;
2020/03/08 00:14:09;;;;;;;16.45;10.55;;;;;;;-0.5;82.6543;95778.86;;;;
2020/03/08 00:15:10;;;;;;;16.45;10.55;;;;;;;-0.5;82.6543;95778.86;;;;
2020/03/08 00:16:10;;;;;;;15.45;10.15;;;;;;;-0.62;82.70313;95775.23;;;;
2020/03/08 00:17:11;;;;;;;15.45;10.15;;;;;;;-0.62;82.70313;95775.23;;;;
2020/03/08 00:18:11;;;;;;;15.45;10.15;;;;;;;-0.62;82.70313;95775.23;;;;
2020/03/08 00:19:12;;;;;;;15.45;10.15;;;;;;;-0.62;82.70313;95775.23;;;;
2020/03/08 00:20:12;;;;;;;15.45;10.15;;;;;;;-0.62;82.70313;95775.23;;;;
2020/03/08 00:21:12;;;;;;;15.45;10.15;;;;;;;-0.62;82.70313;95775.23;;;;
2020/03/08 00:22:13;;;;;;;15.45;10.15;;;;;;;-0.62;82.70313;95775.23;;;;
2020/03/08 00:23:13;;;;;;;15.45;10.15;;;;;;;-0.62;82.70313;95775.23;;;;
2020/03/08 00:24:14;;;;;;;15.45;10.15;;;;;;;-0.62;82.70313;95775.23;;;;
2020/03/08 00:25:14;;;;;;;15.45;10.15;;;;;;;-0.62;82.70313;95775.23;;;;
2020/03/08 00:26:15;;;;;;;15.45;10.15;;;;;;;-0.62;82.70313;95775.23;;;;
2020/03/08 00:27:15;;;;;;;17.5;10.25;;;;;;;-0.76;82.80078;95760.82;;;;
2020/03/08 00:28:15;;;;;;;17.5;10.25;;;;;;;-0.76;82.80078;95760.82;;;;
2020/03/08 00:29:16;;;;;;;17.5;10.25;;;;;;;-0.76;82.80078;95760.82;;;;
2020/03/08 00:30:16;;;;;;;17.5;10.25;;;;;;;-0.76;82.80078;95760.82;;;;
2020/03/08 00:31:17;;;;;;;17.5;10.25;;;;;;;-0.76;82.80078;95760.82;;;;
2020/03/08 00:32:17;;;;;;;17.5;10.25;;;;;;;-0.76;82.80078;95760.82;;;;
2020/03/08 00:33:18;;;;;;;17.5;10.25;;;;;;;-0.76;82.80078;95760.82;;;;
2020/03/08 00:34:18;;;;;;;17.5;10.25;;;;;;;-0.76;82.80078;95760.82;;;;
2020/03/08 00:35:19;;;;;;;17.5;10.25;;;;;;;-0.76;82.80078;95760.82;;;;
2020/03/08 00:36:20;;;;;;;17.5;10.25;;;;;;;-0.76;82.80078;95760.82;;;;
2020/03/08 00:37:20;;;;;;;16.5;10.55;;;;;;;-0.81;82.85156;95770.63;;;;
2020/03/08 00:38:21;;;;;;;16.5;10.55;;;;;;;-0.81;82.85156;95770.63;;;;
2020/03/08 00:39:21;;;;;;;16.5;10.55;;;;;;;-0.81;82.85156;95770.63;;;;
2020/03/08 00:40:22;;;;;;;16.5;10.55;;;;;;;-0.81;82.85156;95770.63;;;;
2020/03/08 00:41:22;;;;;;;16.5;10.55;;;;;;;-0.81;82.85156;95770.63;;;;
2020/03/08 00:42:22;;;;;;;16.5;10.55;;;;;;;-0.81;82.85156;95770.63;;;;
2020/03/08 00:43:23;;;;;;;16.5;10.55;;;;;;;-0.81;82.85156;95770.63;;;;
2020/03/08 00:44:23;;;;;;;16.5;10.55;;;;;;;-0.81;82.85156;95770.63;;;;
2020/03/08 00:45:24;;;;;;;16.5;10.55;;;;;;;-0.81;82.85156;95770.63;;;;
2020/03/08 00:46:24;;;;;;;16.5;10.55;;;;;;;-0.81;82.85156;95770.63;;;;
2020/03/08 00:47:25;;;;;;;16.5;10.55;;;;;;;-0.81;82.85156;95770.63;;;;
2020/03/08 00:48:25;;;;;;;17.25;10.5;;;;;;;-0.95;82.78418;95753.88;;;;
2020/03/08 00:49:26;;;;;;;17.25;10.5;;;;;;;-0.95;82.78418;95753.88;;;;
2020/03/08 00:50:26;;;;;;;17.25;10.5;;;;;;;-0.95;82.78418;95753.88;;;;
2020/03/08 00:51:27;;;;;;;17.25;10.5;;;;;;;-0.95;82.78418;95753.88;;;;
2020/03/08 00:52:27;;;;;;;17.25;10.5;;;;;;;-0.95;82.78418;95753.88;;;;
2020/03/08 00:53:28;;;;;;;17.25;10.5;;;;;;;-0.95;82.78418;95753.88;;;;
2020/03/08 00:54:28;;;;;;;17.25;10.5;;;;;;;-0.95;82.78418;95753.88;;;;
2020/03/08 00:55:29;;;;;;;17.25;10.5;;;;;;;-0.95;82.78418;95753.88;;;;
2020/03/08 00:56:29;;;;;;;17.25;10.5;;;;;;;-0.95;82.78418;95753.88;;;;
2020/03/08 00:57:30;;;;;;;17.25;10.5;;;;;;;-0.95;82.78418;95753.88;;;;
2020/03/08 00:58:30;;;;;;;16.15;10.2;;;;;;;-1;82.9209;95745.14;;;;
2020/03/08 00:59:30;;;;;;;16.15;10.2;;;;;;;-1;82.9209;95745.14;;;;
2020/03/08 01:00:31;;;;;;;16.15;10.2;;;;;;;-1;82.9209;95745.14;;;;
2020/03/08 01:01:31;;;;;;;16.15;10.2;;;;;;;-1;82.9209;95745.14;;;;
2020/03/08 01:02:32;;;;;;;16.15;10.2;;;;;;;-1;82.9209;95745.14;;;;
2020/03/08 01:03:32;;;;;;;16.15;10.2;;;;;;;-1;82.9209;95745.14;;;;
2020/03/08 01:04:33;;;;;;;16.15;10.2;;;;;;;-1;82.9209;95745.14;;;;
2020/03/08 01:05:33;;;;;;;16.15;10.2;;;;;;;-1;82.9209;95745.14;;;;
2020/03/08 01:06:34;;;;;;;16.15;10.2;;;;;;;-1;82.9209;95745.14;;;;
2020/03/08 01:07:34;;;;;;;16.15;10.2;;;;;;;-1;82.9209;95745.14;;;;
2020/03/08 01:08:35;;;;;;;16.15;10.2;;;;;;;-1;82.9209;95745.14;;;;
2020/03/08 01:09:36;;;;;;;17.75;10.8;;;;;;;-1.1;82.83789;95725.87;;;;
2020/03/08 01:10:36;;;;;;;17.75;10.8;;;;;;;-1.1;82.83789;95725.87;;;;
2020/03/08 01:11:37;;;;;;;17.75;10.8;;;;;;;-1.1;82.83789;95725.87;;;;
2020/03/08 01:12:37;;;;;;;17.75;10.8;;;;;;;-1.1;82.83789;95725.87;;;;
2020/03/08 01:13:38;;;;;;;17.75;10.8;;;;;;;-1.1;82.83789;95725.87;;;;
2020/03/08 01:14:38;;;;;;;17.75;10.8;;;;;;;-1.1;82.83789;95725.87;;;;
2020/03/08 01:15:39;;;;;;;17.75;10.8;;;;;;;-1.1;82.83789;95725.87;;;;
2020/03/08 01:16:39;;;;;;;17.75;10.8;;;;;;;-1.1;82.83789;95725.87;;;;
2020/03/08 01:17:40;;;;;;;17.75;10.8;;;;;;;-1.1;82.83789;95725.87;;;;
2020/03/08 01:18:40;;;;;;;17.75;10.8;;;;;;;-1.1;82.83789;95725.87;;;;
2020/03/08 01:19:41;;;;;;;18.25;9.85;;;;;;;-1.14;82.90332;95718.73;;;;
2020/03/08 01:20:41;;;;;;;18.25;9.85;;;;;;;-1.14;82.90332;95718.73;;;;
2020/03/08 01:21:42;;;;;;;18.25;9.85;;;;;;;-1.14;82.90332;95718.73;;;;
2020/03/08 01:22:42;;;;;;;18.25;9.85;;;;;;;-1.14;82.90332;95718.73;;;;
2020/03/08 01:23:43;;;;;;;18.25;9.85;;;;;;;-1.14;82.90332;95718.73;;;;
2020/03/08 01:24:43;;;;;;;18.25;9.85;;;;;;;-1.14;82.90332;95718.73;;;;
2020/03/08 01:25:44;;;;;;;18.25;9.85;;;;;;;-1.14;82.90332;95718.73;;;;
2020/03/08 01:26:45;;;;;;;18.25;9.85;;;;;;;-1.14;82.90332;95718.73;;;;
2020/03/08 01:27:45;;;;;;;18.25;9.85;;;;;;;-1.14;82.90332;95718.73;;;;
2020/03/08 01:28:46;;;;;;;18.25;9.85;;;;;;;-1.14;82.90332;95718.73;;;;
2020/03/08 01:29:46;;;;;;;18.25;9.85;;;;;;;-1.14;82.90332;95718.73;;;;
2020/03/08 01:30:48;;;;;;;17.95;10.7;;;;;;;-1.24;82.81055;95712.77;;;;
2020/03/08 01:31:49;;;;;;;17.95;10.7;;;;;;;-1.24;82.81055;95712.77;;;;
2020/03/08 01:32:51;;;;;;;17.95;10.7;;;;;;;-1.24;82.81055;95712.77;;;;
2020/03/08 01:33:51;;;;;;;17.95;10.7;;;;;;;-1.24;82.81055;95712.77;;;;
2020/03/08 01:34:51;;;;;;;17.95;10.7;;;;;;;-1.24;82.81055;95712.77;;;;
2020/03/08 01:35:52;;;;;;;17.95;10.7;;;;;;;-1.24;82.81055;95712.77;;;;
2020/03/08 01:36:52;;;;;;;17.95;10.7;;;;;;;-1.24;82.81055;95712.77;;;;
2020/03/08 01:37:53;;;;;;;17.95;10.7;;;;;;;-1.24;82.81055;95712.77;;;;
2020/03/08 01:38:54;;;;;;;17.95;10.7;;;;;;;-1.24;82.81055;95712.77;;;;
2020/03/08 01:39:55;;;;;;;17.95;10.7;;;;;;;-1.24;82.81055;95712.77;;;;
2020/03/08 01:40:55;;;;;;;16.8;9.25;;;;;;;-1.27;82.89844;95704.63;;;;
2020/03/08 01:41:56;;;;;;;16.8;9.25;;;;;;;-1.27;82.89844;95704.63;;;;
2020/03/08 01:42:56;;;;;;;16.8;9.25;;;;;;;-1.27;82.89844;95704.63;;;;
2020/03/08 01:43:57;;;;;;;16.8;9.25;;;;;;;-1.27;82.89844;95704.63;;;;
2020/03/08 01:44:57;;;;;;;16.8;9.25;;;;;;;-1.27;82.89844;95704.63;;;;
2020/03/08 01:45:58;;;;;;;16.8;9.25;;;;;;;-1.27;82.89844;95704.63;;;;
2020/03/08 01:46:58;;;;;;;16.8;9.25;;;;;;;-1.27;82.89844;95704.63;;;;
2020/03/08 01:47:59;;;;;;;16.8;9.25;;;;;;;-1.27;82.89844;95704.63;;;;
2020/03/08 01:48:59;;;;;;;16.8;9.25;;;;;;;-1.27;82.89844;95704.63;;;;
2020/03/08 01:50:00;;;;;;;16.8;9.25;;;;;;;-1.27;82.89844;95704.63;;;;
2020/03/08 01:51:00;;;;;;;16.8;9.25;;;;;;;-1.27;82.89844;95704.63;;;;
2020/03/08 01:52:01;;;;;;;17.45;10.1;;;;;;;-1.35;82.79883;95693.14;;;;
2020/03/08 01:53:01;;;;;;;17.45;10.1;;;;;;;-1.35;82.79883;95693.14;;;;
2020/03/08 01:54:02;;;;;;;17.45;10.1;;;;;;;-1.35;82.79883;95693.14;;;;
2020/03/08 01:55:02;;;;;;;17.45;10.1;;;;;;;-1.35;82.79883;95693.14;;;;
2020/03/08 01:56:03;;;;;;;17.45;10.1;;;;;;;-1.35;82.79883;95693.14;;;;
2020/03/08 01:57:04;;;;;;;17.45;10.1;;;;;;;-1.35;82.79883;95693.14;;;;
2020/03/08 01:58:04;;;;;;;17.45;10.1;;;;;;;-1.35;82.79883;95693.14;;;;
2020/03/08 01:59:04;;;;;;;17.45;10.1;;;;;;;-1.35;82.79883;95693.14;;;;
2020/03/08 02:00:05;;;;;;;17.45;10.1;;;;;;;-1.35;82.79883;95693.14;;;;
2020/03/08 02:01:06;;;;;;;17.45;10.1;;;;;;;-1.35;82.79883;95693.14;;;;
2020/03/08 02:02:06;;;;;;;17.35;9.75;;;;;;;-1.3;82.98633;95682.9;;;;
2020/03/08 02:03:07;;;;;;;17.35;9.75;;;;;;;-1.3;82.98633;95682.9;;;;
2020/03/08 02:04:07;;;;;;;17.35;9.75;;;;;;;-1.3;82.98633;95682.9;;;;
2020/03/08 02:05:08;;;;;;;17.35;9.75;;;;;;;-1.3;82.98633;95682.9;;;;
2020/03/08 02:06:08;;;;;;;17.35;9.75;;;;;;;-1.3;82.98633;95682.9;;;;
2020/03/08 02:07:09;;;;;;;17.35;9.75;;;;;;;-1.3;82.98633;95682.9;;;;
2020/03/08 02:08:09;;;;;;;17.35;9.75;;;;;;;-1.3;82.98633;95682.9;;;;
2020/03/08 02:09:10;;;;;;;17.35;9.75;;;;;;;-1.3;82.98633;95682.9;;;;
2020/03/08 02:10:10;;;;;;;17.35;9.75;;;;;;;-1.3;82.98633;95682.9;;;;
2020/03/08 02:11:11;;;;;;;17.35;9.75;;;;;;;-1.3;82.98633;95682.9;;;;
2020/03/08 02:12:11;;;;;;;17.35;9.75;;;;;;;-1.3;82.98633;95682.9;;;;
2020/03/08 02:13:11;;;;;;;15.6;9.200001;;;;;;;-1.32;82.75488;95670.25;;;;
2020/03/08 02:14:12;;;;;;;15.6;9.200001;;;;;;;-1.32;82.75488;95670.25;;;;
2020/03/08 02:15:12;;;;;;;15.6;9.200001;;;;;;;-1.32;82.75488;95670.25;;;;
2020/03/08 02:16:13;;;;;;;15.6;9.200001;;;;;;;-1.32;82.75488;95670.25;;;;
2020/03/08 02:17:14;;;;;;;15.6;9.200001;;;;;;;-1.32;82.75488;95670.25;;;;
2020/03/08 02:18:14;;;;;;;15.6;9.200001;;;;;;;-1.32;82.75488;95670.25;;;;
2020/03/08 02:19:15;;;;;;;15.6;9.200001;;;;;;;-1.32;82.75488;95670.25;;;;
2020/03/08 02:20:17;;;;;;;15.6;9.200001;;;;;;;-1.32;82.75488;95670.25;;;;
2020/03/08 02:21:17;;;;;;;15.6;9.200001;;;;;;;-1.32;82.75488;95670.25;;;;
2020/03/08 02:22:18;;;;;;;15.6;9.200001;;;;;;;-1.32;82.75488;95670.25;;;;
2020/03/08 02:23:18;;;;;;;15.05;9.049999;;;;;;;-1.32;82.73242;95670.73;;;;
2020/03/08 02:24:24;;;;;;;15.05;9.049999;;;;;;;-1.32;82.73242;95670.73;;;;
2020/03/08 02:25:25;;;;;;;15.05;9.049999;;;;;;;-1.32;82.73242;95670.73;;;;
2020/03/08 02:26:26;;;;;;;15.05;9.049999;;;;;;;-1.32;82.73242;95670.73;;;;
2020/03/08 02:27:26;;;;;;;15.05;9.049999;;;;;;;-1.32;82.73242;95670.73;;;;
2020/03/08 02:28:27;;;;;;;15.05;9.049999;;;;;;;-1.32;82.73242;95670.73;;;;
2020/03/08 02:29:27;;;;;;;15.05;9.049999;;;;;;;-1.32;82.73242;95670.73;;;;
2020/03/08 02:30:28;;;;;;;15.05;9.049999;;;;;;;-1.32;82.73242;95670.73;;;;
2020/03/08 02:31:28;;;;;;;15.05;9.049999;;;;;;;-1.32;82.73242;95670.73;;;;
2020/03/08 02:32:29;;;;;;;15.05;9.049999;;;;;;;-1.32;82.73242;95670.73;;;;
2020/03/08 02:33:29;;;;;;;15.05;9.049999;;;;;;;-1.32;82.73242;95670.73;;;;
2020/03/08 02:34:30;;;;;;;15.85;9.300001;;;;;;;-1.42;82.76758;95666.42;;;;
2020/03/08 02:35:31;;;;;;;15.85;9.300001;;;;;;;-1.42;82.76758;95666.42;;;;
2020/03/08 02:36:32;;;;;;;15.85;9.300001;;;;;;;-1.42;82.76758;95666.42;;;;
2020/03/08 02:37:32;;;;;;;15.85;9.300001;;;;;;;-1.42;82.76758;95666.42;;;;
2020/03/08 02:38:32;;;;;;;15.85;9.300001;;;;;;;-1.42;82.76758;95666.42;;;;
2020/03/08 02:39:33;;;;;;;15.85;9.300001;;;;;;;-1.42;82.76758;95666.42;;;;
2020/03/08 02:40:34;;;;;;;15.85;9.300001;;;;;;;-1.42;82.76758;95666.42;;;;
2020/03/08 02:41:34;;;;;;;15.85;9.300001;;;;;;;-1.42;82.76758;95666.42;;;;
2020/03/08 02:42:34;;;;;;;15.85;9.300001;;;;;;;-1.42;82.76758;95666.42;;;;
2020/03/08 02:43:35;;;;;;;15.85;9.300001;;;;;;;-1.42;82.76758;95666.42;;;;
2020/03/08 02:44:36;;;;;;;17.8;9.5;;;;;;;-1.33;82.89844;95657.56;;;;
2020/03/08 02:45:36;;;;;;;17.8;9.5;;;;;;;-1.33;82.89844;95657.56;;;;
2020/03/08 02:46:37;;;;;;;17.8;9.5;;;;;;;-1.33;82.89844;95657.56;;;;
2020/03/08 02:47:37;;;;;;;17.8;9.5;;;;;;;-1.33;82.89844;95657.56;;;;
2020/03/08 02:48:38;;;;;;;17.8;9.5;;;;;;;-1.33;82.89844;95657.56;;;;
2020/03/08 02:49:38;;;;;;;17.8;9.5;;;;;;;-1.33;82.89844;95657.56;;;;
2020/03/08 02:50:38;;;;;;;17.8;9.5;;;;;;;-1.33;82.89844;95657.56;;;;
2020/03/08 02:51:39;;;;;;;17.8;9.5;;;;;;;-1.33;82.89844;95657.56;;;;
2020/03/08 02:52:40;;;;;;;17.8;9.5;;;;;;;-1.33;82.89844;95657.56;;;;
2020/03/08 02:53:40;;;;;;;17.8;9.5;;;;;;;-1.33;82.89844;95657.56;;;;
2020/03/08 02:54:40;;;;;;;17.8;9.5;;;;;;;-1.33;82.89844;95657.56;;;;
2020/03/08 02:55:41;;;;;;;14.15;8.6;;;;;;;-1.24;82.76074;95661.02;;;;
2020/03/08 02:56:41;;;;;;;14.15;8.6;;;;;;;-1.24;82.76074;95661.02;;;;
2020/03/08 02:57:42;;;;;;;14.15;8.6;;;;;;;-1.24;82.76074;95661.02;;;;
2020/03/08 02:58:43;;;;;;;14.15;8.6;;;;;;;-1.24;82.76074;95661.02;;;;
2020/03/08 02:59:43;;;;;;;14.15;8.6;;;;;;;-1.24;82.76074;95661.02;;;;
2020/03/08 03:00:44;;;;;;;14.15;8.6;;;;;;;-1.24;82.76074;95661.02;;;;
2020/03/08 03:01:44;;;;;;;14.15;8.6;;;;;;;-1.24;82.76074;95661.02;;;;
2020/03/08 03:02:45;;;;;;;14.15;8.6;;;;;;;-1.24;82.76074;95661.02;;;;
2020/03/08 03:03:46;;;;;;;14.15;8.6;;;;;;;-1.24;82.76074;95661.02;;;;
2020/03/08 03:04:48;;;;;;;14.15;8.6;;;;;;;-1.24;82.76074;95661.02;;;;
2020/03/08 03:05:49;;;;;;;14.2;8.75;;;;;;;-1.2;82.77832;95651.78;;;;
2020/03/08 03:06:50;;;;;;;14.2;8.75;;;;;;;-1.2;82.77832;95651.78;;;;
2020/03/08 03:07:50;;;;;;;14.2;8.75;;;;;;;-1.2;82.77832;95651.78;;;;
2020/03/08 03:08:51;;;;;;;14.2;8.75;;;;;;;-1.2;82.77832;95651.78;;;;
2020/03/08 03:09:52;;;;;;;14.2;8.75;;;;;;;-1.2;82.77832;95651.78;;;;
2020/03/08 03:10:53;;;;;;;14.2;8.75;;;;;;;-1.2;82.77832;95651.78;;;;
2020/03/08 03:11:53;;;;;;;14.2;8.75;;;;;;;-1.2;82.77832;95651.78;;;;
2020/03/08 03:12:54;;;;;;;14.2;8.75;;;;;;;-1.2;82.77832;95651.78;;;;
2020/03/08 03:13:54;;;;;;;14.2;8.75;;;;;;;-1.2;82.77832;95651.78;;;;
2020/03/08 03:14:55;;;;;;;14.2;8.75;;;;;;;-1.2;82.77832;95651.78;;;;
2020/03/08 03:15:55;;;;;;;14.2;8.75;;;;;;;-1.2;82.77832;95651.78;;;;
2020/03/08 03:16:56;;;;;;;12.65;7.450001;;;;;;;-1.23;82.80176;95650.84;;;;
2020/03/08 03:17:58;;;;;;;12.65;7.450001;;;;;;;-1.23;82.80176;95650.84;;;;
2020/03/08 03:18:59;;;;;;;12.65;7.450001;;;;;;;-1.23;82.80176;95650.84;;;;
2020/03/08 03:20:00;;;;;;;12.65;7.450001;;;;;;;-1.23;82.80176;95650.84;;;;
2020/03/08 03:21:00;;;;;;;12.65;7.450001;;;;;;;-1.23;82.80176;95650.84;;;;
2020/03/08 03:22:01;;;;;;;12.65;7.450001;;;;;;;-1.23;82.80176;95650.84;;;;
2020/03/08 03:23:05;;;;;;;12.65;7.450001;;;;;;;-1.23;82.80176;95650.84;;;;
2020/03/08 03:24:05;;;;;;;12.65;7.450001;;;;;;;-1.23;82.80176;95650.84;;;;
2020/03/08 03:25:06;;;;;;;12.65;7.450001;;;;;;;-1.23;82.80176;95650.84;;;;
2020/03/08 03:26:06;;;;;;;12.65;7.450001;;;;;;;-1.23;82.80176;95650.84;;;;
2020/03/08 03:27:06;;;;;;;13.05;8.349998;;;;;;;-1.23;82.84375;95652.17;;;;
2020/03/08 03:28:07;;;;;;;13.05;8.349998;;;;;;;-1.23;82.84375;95652.17;;;;
2020/03/08 03:29:07;;;;;;;13.05;8.349998;;;;;;;-1.23;82.84375;95652.17;;;;
2020/03/08 03:30:08;;;;;;;13.05;8.349998;;;;;;;-1.23;82.84375;95652.17;;;;
2020/03/08 03:31:11;;;;;;;13.05;8.349998;;;;;;;-1.23;82.84375;95652.17;;;;
2020/03/08 03:32:15;;;;;;;13.05;8.349998;;;;;;;-1.23;82.84375;95652.17;;;;
2020/03/08 03:33:16;;;;;;;13.05;8.349998;;;;;;;-1.23;82.84375;95652.17;;;;
2020/03/08 03:34:17;;;;;;;13.05;8.349998;;;;;;;-1.23;82.84375;95652.17;;;;
2020/03/08 03:35:17;;;;;;;13.05;8.349998;;;;;;;-1.23;82.84375;95652.17;;;;
2020/03/08 03:36:20;;;;;;;13.05;8.349998;;;;;;;-1.23;82.84375;95652.17;;;;
2020/03/08 03:37:21;;;;;;;13.05;8.349998;;;;;;;-1.23;82.84375;95652.17;;;;
2020/03/08 03:38:22;;;;;;;13.05;8.349998;;;;;;;-1.23;82.84375;95652.17;;;;
2020/03/08 03:39:23;;;;;;;13.05;8.349998;;;;;;;-1.23;82.84375;95652.17;;;;
2020/03/08 03:40:23;;;;;;;13.05;8.349998;;;;;;;-1.23;82.84375;95652.17;;;;
2020/03/08 03:41:24;;;;;;;13.05;8.349998;;;;;;;-1.23;82.84375;95652.17;;;;
2020/03/08 03:42:24;;;;;;;13.05;8.349998;;;;;;;-1.23;82.84375;95652.17;;;;
2020/03/08 03:43:24;;;;;;;13.05;8.349998;;;;;;;-1.23;82.84375;95652.17;;;;
2020/03/08 03:44:25;;;;;;;13.05;8.349998;;;;;;;-1.23;82.84375;95652.17;;;;
2020/03/08 03:45:26;;;;;;;13.05;8.349998;;;;;;;-1.23;82.84375;95652.17;;;;
2020/03/08 03:46:26;;;;;;;13.05;8.349998;;;;;;;-1.23;82.84375;95652.17;;;;
2020/03/08 03:47:27;;;;;;;13.05;8.349998;;;;;;;-1.23;82.84375;95652.17;;;;
2020/03/08 03:48:27;;;;;;;10.5;6.900001;;;;;;;-1.27;82.89648;95654.78;;;;
2020/03/08 03:49:27;;;;;;;10.5;6.900001;;;;;;;-1.27;82.89648;95654.78;;;;
2020/03/08 03:50:28;;;;;;;10.5;6.900001;;;;;;;-1.27;82.89648;95654.78;;;;
2020/03/08 03:51:28;;;;;;;10.5;6.900001;;;;;;;-1.27;82.89648;95654.78;;;;
2020/03/08 03:52:29;;;;;;;10.5;6.900001;;;;;;;-1.27;82.89648;95654.78;;;;
2020/03/08 03:53:30;;;;;;;10.5;6.900001;;;;;;;-1.27;82.89648;95654.78;;;;
2020/03/08 03:54:31;;;;;;;10.5;6.900001;;;;;;;-1.27;82.89648;95654.78;;;;
2020/03/08 03:55:31;;;;;;;10.5;6.900001;;;;;;;-1.27;82.89648;95654.78;;;;
2020/03/08 03:56:32;;;;;;;10.5;6.900001;;;;;;;-1.27;82.89648;95654.78;;;;
2020/03/08 03:57:32;;;;;;;10.5;6.900001;;;;;;;-1.27;82.89648;95654.78;;;;
2020/03/08 03:58:32;;;;;;;10.5;6.900001;;;;;;;-1.27;82.89648;95654.78;;;;
2020/03/08 03:59:33;;;;;;;13;7.6;;;;;;;-1.39;83.25879;95652.9;;;;
2020/03/08 04:00:33;;;;;;;13;7.6;;;;;;;-1.39;83.25879;95652.9;;;;
2020/03/08 04:01:35;;;;;;;13;7.6;;;;;;;-1.39;83.25879;95652.9;;;;
2020/03/08 04:02:35;;;;;;;13;7.6;;;;;;;-1.39;83.25879;95652.9;;;;
2020/03/08 04:03:37;;;;;;;13;7.6;;;;;;;-1.39;83.25879;95652.9;;;;
2020/03/08 04:04:38;;;;;;;13;7.6;;;;;;;-1.39;83.25879;95652.9;;;;
2020/03/08 04:05:38;;;;;;;13;7.6;;;;;;;-1.39;83.25879;95652.9;;;;
2020/03/08 04:06:39;;;;;;;13;7.6;;;;;;;-1.39;83.25879;95652.9;;;;
2020/03/08 04:07:40;;;;;;;13;7.6;;;;;;;-1.39;83.25879;95652.9;;;;
2020/03/08 04:08:40;;;;;;;13;7.6;;;;;;;-1.39;83.25879;95652.9;;;;
2020/03/08 04:09:40;;;;;;;10.3;6.75;;;;;;;-1.38;83.24219;95637.75;;;;
2020/03/08 04:10:41;;;;;;;10.3;6.75;;;;;;;-1.38;83.24219;95637.75;;;;
2020/03/08 04:11:41;;;;;;;10.3;6.75;;;;;;;-1.38;83.24219;95637.75;;;;
2020/03/08 04:12:42;;;;;;;10.3;6.75;;;;;;;-1.38;83.24219;95637.75;;;;
2020/03/08 04:13:42;;;;;;;10.3;6.75;;;;;;;-1.38;83.24219;95637.75;;;;
2020/03/08 04:14:43;;;;;;;10.3;6.75;;;;;;;-1.38;83.24219;95637.75;;;;
2020/03/08 04:15:43;;;;;;;10.3;6.75;;;;;;;-1.38;83.24219;95637.75;;;;
2020/03/08 04:16:44;;;;;;;10.3;6.75;;;;;;;-1.38;83.24219;95637.75;;;;
2020/03/08 04:17:45;;;;;;;10.3;6.75;;;;;;;-1.38;83.24219;95637.75;;;;
2020/03/08 04:18:47;;;;;;;10.3;6.75;;;;;;;-1.38;83.24219;95637.75;;;;
2020/03/08 04:19:47;;;;;;;10.3;6.75;;;;;;;-1.38;83.24219;95637.75;;;;
2020/03/08 04:20:49;;;;;;;13.2;7.45;;;;;;;-1.43;83.27246;95636.97;;;;
2020/03/08 04:21:50;;;;;;;13.2;7.45;;;;;;;-1.43;83.27246;95636.97;;;;
2020/03/08 04:22:51;;;;;;;13.2;7.45;;;;;;;-1.43;83.27246;95636.97;;;;
2020/03/08 04:23:53;;;;;;;13.2;7.45;;;;;;;-1.43;83.27246;95636.97;;;;
2020/03/08 04:24:54;;;;;;;13.2;7.45;;;;;;;-1.43;83.27246;95636.97;;;;
2020/03/08 04:25:54;;;;;;;13.2;7.45;;;;;;;-1.43;83.27246;95636.97;;;;
2020/03/08 04:26:55;;;;;;;13.2;7.45;;;;;;;-1.43;83.27246;95636.97;;;;
2020/03/08 04:27:56;;;;;;;13.2;7.45;;;;;;;-1.43;83.27246;95636.97;;;;
2020/03/08 04:28:57;;;;;;;13.2;7.45;;;;;;;-1.43;83.27246;95636.97;;;;
2020/03/08 04:29:57;;;;;;;13.2;7.45;;;;;;;-1.43;83.27246;95636.97;;;;
2020/03/08 04:30:58;;;;;;;12.3;7.349999;;;;;;;-1.4;83.3623;95636.66;;;;
2020/03/08 04:31:58;;;;;;;12.3;7.349999;;;;;;;-1.4;83.3623;95636.66;;;;
2020/03/08 04:32:59;;;;;;;12.3;7.349999;;;;;;;-1.4;83.3623;95636.66;;;;
2020/03/08 04:33:59;;;;;;;12.3;7.349999;;;;;;;-1.4;83.3623;95636.66;;;;
2020/03/08 04:35:00;;;;;;;12.3;7.349999;;;;;;;-1.4;83.3623;95636.66;;;;
2020/03/08 04:36:00;;;;;;;12.3;7.349999;;;;;;;-1.4;83.3623;95636.66;;;;
2020/03/08 04:37:01;;;;;;;12.3;7.349999;;;;;;;-1.4;83.3623;95636.66;;;;
2020/03/08 04:38:01;;;;;;;12.3;7.349999;;;;;;;-1.4;83.3623;95636.66;;;;
2020/03/08 04:39:09;;;;;;;12.3;7.349999;;;;;;;-1.4;83.3623;95636.66;;;;
2020/03/08 04:40:10;;;;;;;12.3;7.349999;;;;;;;-1.4;83.3623;95636.66;;;;
2020/03/08 04:41:10;;;;;;;12.3;7.349999;;;;;;;-1.4;83.3623;95636.66;;;;
2020/03/08 04:42:11;;;;;;;11.15;6.85;;;;;;;-1.47;83.30664;95632.06;;;;
2020/03/08 04:43:12;;;;;;;11.15;6.85;;;;;;;-1.47;83.30664;95632.06;;;;
2020/03/08 04:44:12;;;;;;;11.15;6.85;;;;;;;-1.47;83.30664;95632.06;;;;
2020/03/08 04:45:18;;;;;;;11.15;6.85;;;;;;;-1.47;83.30664;95632.06;;;;
2020/03/08 04:46:19;;;;;;;11.15;6.85;;;;;;;-1.47;83.30664;95632.06;;;;
2020/03/08 04:47:20;;;;;;;11.15;6.85;;;;;;;-1.47;83.30664;95632.06;;;;
2020/03/08 04:48:24;;;;;;;11.15;6.85;;;;;;;-1.47;83.30664;95632.06;;;;
2020/03/08 04:49:25;;;;;;;11.15;6.85;;;;;;;-1.47;83.30664;95632.06;;;;
2020/03/08 04:50:26;;;;;;;11.15;6.85;;;;;;;-1.47;83.30664;95632.06;;;;
2020/03/08 04:51:27;;;;;;;11.15;6.85;;;;;;;-1.47;83.30664;95632.06;;;;
2020/03/08 04:52:28;;;;;;;12.45;7.099999;;;;;;;-1.45;83.45508;95623.95;;;;
2020/03/08 04:53:29;;;;;;;12.45;7.099999;;;;;;;-1.45;83.45508;95623.95;;;;
2020/03/08 04:54:30;;;;;;;12.45;7.099999;;;;;;;-1.45;83.45508;95623.95;;;;
2020/03/08 04:55:31;;;;;;;12.45;7.099999;;;;;;;-1.45;83.45508;95623.95;;;;
2020/03/08 04:56:31;;;;;;;12.45;7.099999;;;;;;;-1.45;83.45508;95623.95;;;;
2020/03/08 04:57:35;;;;;;;12.45;7.099999;;;;;;;-1.45;83.45508;95623.95;;;;
2020/03/08 04:58:37;;;;;;;12.45;7.099999;;;;;;;-1.45;83.45508;95623.95;;;;
2020/03/08 04:59:37;;;;;;;12.45;7.099999;;;;;;;-1.45;83.45508;95623.95;;;;
2020/03/08 05:00:38;;;;;;;12.45;7.099999;;;;;;;-1.45;83.45508;95623.95;;;;
2020/03/08 05:01:39;;;;;;;12.45;7.099999;;;;;;;-1.45;83.45508;95623.95;;;;
2020/03/08 05:02:39;;;;;;;12.45;7.099999;;;;;;;-1.45;83.45508;95623.95;;;;
2020/03/08 05:03:40;;;;;;;11.15;7.349999;;;;;;;-1.49;83.47754;95630.16;;;;
2020/03/08 05:04:40;;;;;;;11.15;7.349999;;;;;;;-1.49;83.47754;95630.16;;;;
2020/03/08 05:05:41;;;;;;;11.15;7.349999;;;;;;;-1.49;83.47754;95630.16;;;;
2020/03/08 05:06:42;;;;;;;11.15;7.349999;;;;;;;-1.49;83.47754;95630.16;;;;
2020/03/08 05:07:42;;;;;;;11.15;7.349999;;;;;;;-1.49;83.47754;95630.16;;;;
2020/03/08 05:08:42;;;;;;;11.15;7.349999;;;;;;;-1.49;83.47754;95630.16;;;;
2020/03/08 05:09:43;;;;;;;11.15;7.349999;;;;;;;-1.49;83.47754;95630.16;;;;
2020/03/08 05:10:43;;;;;;;11.15;7.349999;;;;;;;-1.49;83.47754;95630.16;;;;
2020/03/08 05:11:44;;;;;;;11.15;7.349999;;;;;;;-1.49;83.47754;95630.16;;;;
2020/03/08 05:12:45;;;;;;;11.15;7.349999;;;;;;;-1.49;83.47754;95630.16;;;;
2020/03/08 05:13:45;;;;;;;13.7;8.4;;;;;;;-1.51;83.44238;95625.5;;;;
2020/03/08 05:14:46;;;;;;;13.7;8.4;;;;;;;-1.51;83.44238;95625.5;;;;
2020/03/08 05:15:47;;;;;;;13.7;8.4;;;;;;;-1.51;83.44238;95625.5;;;;
2020/03/08 05:16:47;;;;;;;13.7;8.4;;;;;;;-1.51;83.44238;95625.5;;;;
2020/03/08 05:17:48;;;;;;;13.7;8.4;;;;;;;-1.51;83.44238;95625.5;;;;
2020/03/08 05:18:49;;;;;;;13.7;8.4;;;;;;;-1.51;83.44238;95625.5;;;;
2020/03/08 05:19:49;;;;;;;13.7;8.4;;;;;;;-1.51;83.44238;95625.5;;;;
2020/03/08 05:20:49;;;;;;;13.7;8.4;;;;;;;-1.51;83.44238;95625.5;;;;
2020/03/08 05:21:50;;;;;;;13.7;8.4;;;;;;;-1.51;83.44238;95625.5;;;;
2020/03/08 05:22:50;;;;;;;13.7;8.4;;;;;;;-1.51;83.44238;95625.5;;;;
2020/03/08 05:23:51;;;;;;;13.7;8.4;;;;;;;-1.51;83.44238;95625.5;;;;
2020/03/08 05:24:51;;;;;;;12.45;7.75;;;;;;;-1.56;83.55957;95643.58;;;;
2020/03/08 05:25:52;;;;;;;12.45;7.75;;;;;;;-1.56;83.55957;95643.58;;;;
2020/03/08 05:26:52;;;;;;;12.45;7.75;;;;;;;-1.56;83.55957;95643.58;;;;
2020/03/08 05:27:53;;;;;;;12.45;7.75;;;;;;;-1.56;83.55957;95643.58;;;;
2020/03/08 05:28:54;;;;;;;12.45;7.75;;;;;;;-1.56;83.55957;95643.58;;;;
2020/03/08 05:29:54;;;;;;;12.45;7.75;;;;;;;-1.56;83.55957;95643.58;;;;
2020/03/08 05:30:55;;;;;;;12.45;7.75;;;;;;;-1.56;83.55957;95643.58;;;;
2020/03/08 05:31:58;;;;;;;12.45;7.75;;;;;;;-1.56;83.55957;95643.58;;;;
2020/03/08 05:33:05;;;;;;;12.45;7.75;;;;;;;-1.56;83.55957;95643.58;;;;
2020/03/08 05:34:07;;;;;;;12.45;7.75;;;;;;;-1.56;83.55957;95643.58;;;;
2020/03/08 05:35:11;;;;;;;13.9;8.099999;;;;;;;-1.57;83.66992;95647.22;;;;
2020/03/08 05:36:12;;;;;;;13.9;8.099999;;;;;;;-1.57;83.66992;95647.22;;;;
2020/03/08 05:37:26;;;;;;;13.9;8.099999;;;;;;;-1.57;83.66992;95647.22;;;;